sensor_id;sensor_type;location;lat;lon;timestamp;P1;durP1;ratioP1;P2;durP2;ratioP2
79338;SDS011;68809;41.712;44.768;2023-05-16T00:01:18;13.90;;;7.20;;
79338;SDS011;68809;41.712;44.768;2023-05-16T00:03:44;12.07;;;6.93;;
79338;SDS011;68809;41.712;44.768;2023-05-16T00:06:11;17.03;;;7.17;;
79338;SDS011;68809;41.712;44.768;2023-05-16T00:08:37;11.52;;;6.80;;
79338;SDS011;68809;41.712;44.768;2023-05-16T00:11:03;13.27;;;7.30;;
79338;SDS011;68809;41.712;44.768;2023-05-16T00:13:30;12.48;;;6.90;;
79338;SDS011;68809;41.712;44.768;2023-05-16T00:15:56;13.10;;;7.07;;
79338;SDS011;68809;41.712;44.768;2023-05-16T00:18:24;11.23;;;6.87;;
79338;SDS011;68809;41.712;44.768;2023-05-16T00:20:51;9.75;;;5.68;;
79338;SDS011;68809;41.712;44.768;2023-05-16T00:23:18;8.57;;;4.95;;
79338;SDS011;68809;41.712;44.768;2023-05-16T00:25:44;10.60;;;4.63;;
79338;SDS011;68809;41.712;44.768;2023-05-16T00:28:11;8.52;;;4.30;;
79338;SDS011;68809;41.712;44.768;2023-05-16T00:30:38;8.93;;;4.10;;
79338;SDS011;68809;41.712;44.768;2023-05-16T00:33:05;7.07;;;4.20;;
79338;SDS011;68809;41.712;44.768;2023-05-16T00:35:31;9.23;;;4.40;;
79338;SDS011;68809;41.712;44.768;2023-05-16T00:37:58;7.95;;;4.10;;
79338;SDS011;68809;41.712;44.768;2023-05-16T00:40:24;7.30;;;4.20;;
79338;SDS011;68809;41.712;44.768;2023-05-16T00:42:50;6.73;;;3.50;;
79338;SDS011;68809;41.712;44.768;2023-05-16T00:45:16;7.05;;;3.80;;
79338;SDS011;68809;41.712;44.768;2023-05-16T00:47:43;6.85;;;3.88;;
79338;SDS011;68809;41.712;44.768;2023-05-16T00:50:09;8.05;;;3.80;;
79338;SDS011;68809;41.712;44.768;2023-05-16T00:52:36;7.63;;;4.03;;
79338;SDS011;68809;41.712;44.768;2023-05-16T00:55:02;7.63;;;3.80;;
79338;SDS011;68809;41.712;44.768;2023-05-16T00:57:32;7.57;;;4.15;;
79338;SDS011;68809;41.712;44.768;2023-05-16T00:59:58;6.85;;;3.95;;
79338;SDS011;68809;41.712;44.768;2023-05-16T01:02:25;6.22;;;3.40;;
79338;SDS011;68809;41.712;44.768;2023-05-16T01:04:53;6.70;;;3.75;;
79338;SDS011;68809;41.712;44.768;2023-05-16T01:07:20;6.80;;;3.77;;
79338;SDS011;68809;41.712;44.768;2023-05-16T01:09:46;7.68;;;3.97;;
79338;SDS011;68809;41.712;44.768;2023-05-16T01:25:30;9.10;;;4.20;;
79338;SDS011;68809;41.712;44.768;2023-05-16T01:27:58;8.05;;;3.72;;
79338;SDS011;68809;41.712;44.768;2023-05-16T01:30:31;7.40;;;4.10;;
79338;SDS011;68809;41.712;44.768;2023-05-16T01:33:04;8.37;;;4.30;;
79338;SDS011;68809;41.712;44.768;2023-05-16T01:35:30;7.57;;;3.75;;
79338;SDS011;68809;41.712;44.768;2023-05-16T01:43:16;9.15;;;4.60;;
79338;SDS011;68809;41.712;44.768;2023-05-16T01:45:50;7.43;;;3.70;;
79338;SDS011;68809;41.712;44.768;2023-05-16T01:48:26;10.20;;;3.90;;
79338;SDS011;68809;41.712;44.768;2023-05-16T01:50:57;7.82;;;3.58;;
79338;SDS011;68809;41.712;44.768;2023-05-16T01:53:31;7.05;;;3.90;;
79338;SDS011;68809;41.712;44.768;2023-05-16T01:56:00;7.55;;;3.65;;
79338;SDS011;68809;41.712;44.768;2023-05-16T01:58:27;8.10;;;3.90;;
79338;SDS011;68809;41.712;44.768;2023-05-16T02:01:01;8.00;;;3.90;;
79338;SDS011;68809;41.712;44.768;2023-05-16T02:03:32;7.88;;;3.95;;
79338;SDS011;68809;41.712;44.768;2023-05-16T02:05:59;7.40;;;3.80;;
79338;SDS011;68809;41.712;44.768;2023-05-16T02:08:26;8.23;;;3.63;;
79338;SDS011;68809;41.712;44.768;2023-05-16T02:10:53;8.23;;;4.10;;
79338;SDS011;68809;41.712;44.768;2023-05-16T02:13:20;8.18;;;3.97;;
79338;SDS011;68809;41.712;44.768;2023-05-16T02:15:47;7.75;;;4.20;;
79338;SDS011;68809;41.712;44.768;2023-05-16T02:18:13;9.30;;;3.78;;
79338;SDS011;68809;41.712;44.768;2023-05-16T02:20:40;7.40;;;3.90;;
79338;SDS011;68809;41.712;44.768;2023-05-16T02:23:06;6.33;;;3.50;;
79338;SDS011;68809;41.712;44.768;2023-05-16T02:25:33;9.75;;;3.80;;
79338;SDS011;68809;41.712;44.768;2023-05-16T02:27:59;7.85;;;3.78;;
79338;SDS011;68809;41.712;44.768;2023-05-16T02:30:25;7.82;;;3.97;;
79338;SDS011;68809;41.712;44.768;2023-05-16T02:32:52;7.97;;;4.00;;
79338;SDS011;68809;41.712;44.768;2023-05-16T02:35:18;9.27;;;3.57;;
79338;SDS011;68809;41.712;44.768;2023-05-16T02:37:45;7.95;;;4.10;;
79338;SDS011;68809;41.712;44.768;2023-05-16T02:40:11;9.80;;;4.35;;
79338;SDS011;68809;41.712;44.768;2023-05-16T02:42:38;6.93;;;4.32;;
79338;SDS011;68809;41.712;44.768;2023-05-16T02:45:04;8.10;;;4.50;;
79338;SDS011;68809;41.712;44.768;2023-05-16T02:47:32;6.67;;;5.10;;
79338;SDS011;68809;41.712;44.768;2023-05-16T02:49:59;7.15;;;5.85;;
79338;SDS011;68809;41.712;44.768;2023-05-16T02:52:25;7.82;;;5.97;;
79338;SDS011;68809;41.712;44.768;2023-05-16T02:54:52;8.52;;;6.40;;
79338;SDS011;68809;41.712;44.768;2023-05-16T02:57:18;11.75;;;6.70;;
79338;SDS011;68809;41.712;44.768;2023-05-16T02:59:44;8.07;;;6.40;;
79338;SDS011;68809;41.712;44.768;2023-05-16T03:02:10;8.55;;;6.60;;
79338;SDS011;68809;41.712;44.768;2023-05-16T03:04:36;8.13;;;7.20;;
79338;SDS011;68809;41.712;44.768;2023-05-16T03:07:03;10.82;;;6.43;;
79338;SDS011;68809;41.712;44.768;2023-05-16T03:09:30;10.10;;;7.15;;
79338;SDS011;68809;41.712;44.768;2023-05-16T03:11:56;8.37;;;6.40;;
79338;SDS011;68809;41.712;44.768;2023-05-16T03:14:24;9.18;;;6.65;;
79338;SDS011;68809;41.712;44.768;2023-05-16T03:16:50;8.10;;;6.82;;
79338;SDS011;68809;41.712;44.768;2023-05-16T03:19:17;8.98;;;6.95;;
79338;SDS011;68809;41.712;44.768;2023-05-16T03:21:44;8.18;;;7.25;;
79338;SDS011;68809;41.712;44.768;2023-05-16T03:24:12;8.60;;;7.10;;
79338;SDS011;68809;41.712;44.768;2023-05-16T03:26:41;8.27;;;7.15;;
79338;SDS011;68809;41.712;44.768;2023-05-16T03:29:07;10.07;;;7.97;;
79338;SDS011;68809;41.712;44.768;2023-05-16T03:31:33;9.35;;;8.35;;
79338;SDS011;68809;41.712;44.768;2023-05-16T03:34:00;10.75;;;9.13;;
79338;SDS011;68809;41.712;44.768;2023-05-16T03:36:26;10.83;;;8.50;;
79338;SDS011;68809;41.712;44.768;2023-05-16T03:38:53;10.07;;;8.00;;
79338;SDS011;68809;41.712;44.768;2023-05-16T03:41:19;11.30;;;8.23;;
79338;SDS011;68809;41.712;44.768;2023-05-16T03:43:46;15.65;;;8.30;;
79338;SDS011;68809;41.712;44.768;2023-05-16T03:46:13;10.13;;;8.57;;
79338;SDS011;68809;41.712;44.768;2023-05-16T03:48:39;10.17;;;7.13;;
79338;SDS011;68809;41.712;44.768;2023-05-16T03:51:05;10.20;;;7.10;;
79338;SDS011;68809;41.712;44.768;2023-05-16T03:53:31;10.07;;;7.10;;
79338;SDS011;68809;41.712;44.768;2023-05-16T03:55:58;10.60;;;6.90;;
79338;SDS011;68809;41.712;44.768;2023-05-16T03:58:24;12.90;;;7.60;;
79338;SDS011;68809;41.712;44.768;2023-05-16T04:00:50;14.03;;;7.30;;
79338;SDS011;68809;41.712;44.768;2023-05-16T04:03:16;13.50;;;8.27;;
79338;SDS011;68809;41.712;44.768;2023-05-16T04:05:45;11.23;;;7.15;;
79338;SDS011;68809;41.712;44.768;2023-05-16T04:08:12;10.68;;;7.05;;
79338;SDS011;68809;41.712;44.768;2023-05-16T04:10:38;13.15;;;7.20;;
79338;SDS011;68809;41.712;44.768;2023-05-16T04:13:04;11.60;;;6.63;;
79338;SDS011;68809;41.712;44.768;2023-05-16T04:15:30;13.52;;;6.93;;
79338;SDS011;68809;41.712;44.768;2023-05-16T04:17:56;10.77;;;7.13;;
79338;SDS011;68809;41.712;44.768;2023-05-16T04:20:23;13.02;;;7.25;;
79338;SDS011;68809;41.712;44.768;2023-05-16T04:22:49;11.95;;;7.22;;
79338;SDS011;68809;41.712;44.768;2023-05-16T04:25:16;11.87;;;7.00;;
79338;SDS011;68809;41.712;44.768;2023-05-16T04:27:42;12.10;;;6.85;;
79338;SDS011;68809;41.712;44.768;2023-05-16T04:30:09;10.95;;;6.82;;
79338;SDS011;68809;41.712;44.768;2023-05-16T04:32:36;11.32;;;6.80;;
79338;SDS011;68809;41.712;44.768;2023-05-16T04:35:02;12.18;;;6.65;;
79338;SDS011;68809;41.712;44.768;2023-05-16T04:37:30;11.60;;;6.60;;
79338;SDS011;68809;41.712;44.768;2023-05-16T04:39:56;10.57;;;6.57;;
79338;SDS011;68809;41.712;44.768;2023-05-16T04:42:23;12.70;;;6.88;;
79338;SDS011;68809;41.712;44.768;2023-05-16T04:44:49;12.13;;;6.50;;
79338;SDS011;68809;41.712;44.768;2023-05-16T04:47:15;12.82;;;6.75;;
79338;SDS011;68809;41.712;44.768;2023-05-16T04:49:42;9.33;;;6.00;;
79338;SDS011;68809;41.712;44.768;2023-05-16T04:52:08;10.68;;;5.93;;
79338;SDS011;68809;41.712;44.768;2023-05-16T04:54:35;10.90;;;5.93;;
79338;SDS011;68809;41.712;44.768;2023-05-16T04:57:02;12.52;;;6.70;;
79338;SDS011;68809;41.712;44.768;2023-05-16T04:59:28;13.52;;;6.13;;
79338;SDS011;68809;41.712;44.768;2023-05-16T05:01:55;12.67;;;6.40;;
79338;SDS011;68809;41.712;44.768;2023-05-16T05:04:21;10.82;;;6.22;;
79338;SDS011;68809;41.712;44.768;2023-05-16T05:06:47;10.45;;;6.25;;
79338;SDS011;68809;41.712;44.768;2023-05-16T05:09:14;9.43;;;5.90;;
79338;SDS011;68809;41.712;44.768;2023-05-16T05:11:40;13.75;;;6.90;;
79338;SDS011;68809;41.712;44.768;2023-05-16T05:14:06;11.73;;;6.17;;
79338;SDS011;68809;41.712;44.768;2023-05-16T05:16:33;11.02;;;6.00;;
79338;SDS011;68809;41.712;44.768;2023-05-16T05:18:59;10.75;;;5.80;;
79338;SDS011;68809;41.712;44.768;2023-05-16T05:21:25;10.65;;;5.60;;
79338;SDS011;68809;41.712;44.768;2023-05-16T05:23:52;11.52;;;5.72;;
79338;SDS011;68809;41.712;44.768;2023-05-16T05:26:18;10.77;;;5.63;;
79338;SDS011;68809;41.712;44.768;2023-05-16T05:28:47;9.32;;;5.82;;
79338;SDS011;68809;41.712;44.768;2023-05-16T05:31:14;17.35;;;6.22;;
79338;SDS011;68809;41.712;44.768;2023-05-16T05:33:40;10.80;;;5.82;;
79338;SDS011;68809;41.712;44.768;2023-05-16T05:36:07;10.85;;;5.78;;
79338;SDS011;68809;41.712;44.768;2023-05-16T05:38:33;8.73;;;5.37;;
79338;SDS011;68809;41.712;44.768;2023-05-16T05:41:00;11.68;;;5.57;;
79338;SDS011;68809;41.712;44.768;2023-05-16T05:43:26;9.85;;;5.45;;
79338;SDS011;68809;41.712;44.768;2023-05-16T05:45:53;9.88;;;5.25;;
79338;SDS011;68809;41.712;44.768;2023-05-16T05:48:19;10.63;;;5.60;;
79338;SDS011;68809;41.712;44.768;2023-05-16T05:50:45;8.63;;;5.60;;
79338;SDS011;68809;41.712;44.768;2023-05-16T05:53:11;10.48;;;5.70;;
79338;SDS011;68809;41.712;44.768;2023-05-16T05:55:38;8.82;;;5.65;;
79338;SDS011;68809;41.712;44.768;2023-05-16T05:58:06;9.15;;;5.68;;
79338;SDS011;68809;41.712;44.768;2023-05-16T06:00:32;8.75;;;5.28;;
79338;SDS011;68809;41.712;44.768;2023-05-16T06:02:59;11.77;;;5.83;;
79338;SDS011;68809;41.712;44.768;2023-05-16T06:05:25;10.43;;;5.90;;
79338;SDS011;68809;41.712;44.768;2023-05-16T06:07:52;12.63;;;6.00;;
79338;SDS011;68809;41.712;44.768;2023-05-16T06:10:18;11.68;;;6.43;;
79338;SDS011;68809;41.712;44.768;2023-05-16T06:12:45;11.05;;;5.97;;
79338;SDS011;68809;41.712;44.768;2023-05-16T06:15:11;9.50;;;5.60;;
79338;SDS011;68809;41.712;44.768;2023-05-16T06:17:37;9.38;;;5.80;;
79338;SDS011;68809;41.712;44.768;2023-05-16T06:20:04;8.57;;;5.50;;
79338;SDS011;68809;41.712;44.768;2023-05-16T06:22:32;11.32;;;6.05;;
79338;SDS011;68809;41.712;44.768;2023-05-16T06:24:58;9.98;;;5.88;;
79338;SDS011;68809;41.712;44.768;2023-05-16T06:27:25;9.93;;;5.73;;
79338;SDS011;68809;41.712;44.768;2023-05-16T06:29:51;11.10;;;5.63;;
79338;SDS011;68809;41.712;44.768;2023-05-16T06:32:17;9.88;;;5.63;;
79338;SDS011;68809;41.712;44.768;2023-05-16T06:34:44;9.05;;;5.70;;
79338;SDS011;68809;41.712;44.768;2023-05-16T06:37:10;10.48;;;5.90;;
79338;SDS011;68809;41.712;44.768;2023-05-16T06:39:36;11.13;;;5.57;;
79338;SDS011;68809;41.712;44.768;2023-05-16T06:42:02;9.82;;;5.75;;
79338;SDS011;68809;41.712;44.768;2023-05-16T06:44:31;9.85;;;5.40;;
79338;SDS011;68809;41.712;44.768;2023-05-16T06:46:57;9.23;;;5.32;;
79338;SDS011;68809;41.712;44.768;2023-05-16T06:49:24;8.88;;;4.85;;
79338;SDS011;68809;41.712;44.768;2023-05-16T06:51:50;10.17;;;5.10;;
79338;SDS011;68809;41.712;44.768;2023-05-16T06:54:16;11.13;;;5.50;;
79338;SDS011;68809;41.712;44.768;2023-05-16T06:56:43;8.77;;;5.32;;
79338;SDS011;68809;41.712;44.768;2023-05-16T06:59:10;9.18;;;5.38;;
79338;SDS011;68809;41.712;44.768;2023-05-16T07:01:36;9.75;;;5.50;;
79338;SDS011;68809;41.712;44.768;2023-05-16T07:04:02;9.53;;;5.00;;
79338;SDS011;68809;41.712;44.768;2023-05-16T07:06:28;8.40;;;5.53;;
79338;SDS011;68809;41.712;44.768;2023-05-16T07:08:55;10.30;;;5.15;;
79338;SDS011;68809;41.712;44.768;2023-05-16T07:11:21;9.85;;;5.45;;
79338;SDS011;68809;41.712;44.768;2023-05-16T07:13:47;9.50;;;5.22;;
79338;SDS011;68809;41.712;44.768;2023-05-16T07:16:14;9.93;;;5.23;;
79338;SDS011;68809;41.712;44.768;2023-05-16T07:18:40;11.85;;;5.07;;
79338;SDS011;68809;41.712;44.768;2023-05-16T07:21:07;9.68;;;5.50;;
79338;SDS011;68809;41.712;44.768;2023-05-16T07:23:33;10.77;;;5.25;;
79338;SDS011;68809;41.712;44.768;2023-05-16T07:25:59;9.07;;;5.20;;
79338;SDS011;68809;41.712;44.768;2023-05-16T07:28:26;8.00;;;4.87;;
79338;SDS011;68809;41.712;44.768;2023-05-16T07:30:52;10.95;;;4.90;;
79338;SDS011;68809;41.712;44.768;2023-05-16T07:33:19;8.88;;;4.78;;
79338;SDS011;68809;41.712;44.768;2023-05-16T07:35:45;9.50;;;4.93;;
79338;SDS011;68809;41.712;44.768;2023-05-16T07:38:11;8.77;;;5.25;;
79338;SDS011;68809;41.712;44.768;2023-05-16T07:40:38;8.30;;;4.93;;
79338;SDS011;68809;41.712;44.768;2023-05-16T07:43:04;8.98;;;5.20;;
79338;SDS011;68809;41.712;44.768;2023-05-16T07:45:30;9.90;;;5.03;;
79338;SDS011;68809;41.712;44.768;2023-05-16T07:47:57;11.95;;;4.90;;
79338;SDS011;68809;41.712;44.768;2023-05-16T07:50:24;9.07;;;5.05;;
79338;SDS011;68809;41.712;44.768;2023-05-16T07:52:50;9.73;;;4.60;;
79338;SDS011;68809;41.712;44.768;2023-05-16T07:55:17;10.07;;;4.70;;
79338;SDS011;68809;41.712;44.768;2023-05-16T07:57:43;7.85;;;4.60;;
79338;SDS011;68809;41.712;44.768;2023-05-16T08:00:10;8.23;;;5.10;;
79338;SDS011;68809;41.712;44.768;2023-05-16T08:02:39;11.82;;;6.03;;
79338;SDS011;68809;41.712;44.768;2023-05-16T08:05:06;10.77;;;6.07;;
79338;SDS011;68809;41.712;44.768;2023-05-16T08:07:33;9.48;;;5.10;;
79338;SDS011;68809;41.712;44.768;2023-05-16T08:09:59;8.65;;;5.28;;
79338;SDS011;68809;41.712;44.768;2023-05-16T08:12:25;9.25;;;5.40;;
79338;SDS011;68809;41.712;44.768;2023-05-16T08:14:52;7.43;;;4.55;;
79338;SDS011;68809;41.712;44.768;2023-05-16T08:17:18;8.50;;;5.00;;
79338;SDS011;68809;41.712;44.768;2023-05-16T08:19:44;8.68;;;5.30;;
79338;SDS011;68809;41.712;44.768;2023-05-16T08:22:10;9.98;;;5.25;;
79338;SDS011;68809;41.712;44.768;2023-05-16T08:24:37;9.55;;;5.60;;
79338;SDS011;68809;41.712;44.768;2023-05-16T08:27:03;8.13;;;5.30;;
79338;SDS011;68809;41.712;44.768;2023-05-16T08:29:30;7.93;;;4.90;;
79338;SDS011;68809;41.712;44.768;2023-05-16T08:31:56;10.00;;;5.40;;
79338;SDS011;68809;41.712;44.768;2023-05-16T08:34:22;9.80;;;5.22;;
79338;SDS011;68809;41.712;44.768;2023-05-16T08:36:48;8.43;;;4.97;;
79338;SDS011;68809;41.712;44.768;2023-05-16T08:39:15;11.50;;;5.38;;
79338;SDS011;68809;41.712;44.768;2023-05-16T08:41:41;11.57;;;5.07;;
79338;SDS011;68809;41.712;44.768;2023-05-16T08:44:07;6.78;;;4.68;;
79338;SDS011;68809;41.712;44.768;2023-05-16T08:46:36;10.35;;;4.88;;
79338;SDS011;68809;41.712;44.768;2023-05-16T08:49:04;8.55;;;4.72;;
79338;SDS011;68809;41.712;44.768;2023-05-16T08:51:32;9.30;;;5.03;;
79338;SDS011;68809;41.712;44.768;2023-05-16T08:54:03;8.47;;;4.70;;
79338;SDS011;68809;41.712;44.768;2023-05-16T08:56:32;8.02;;;4.80;;
79338;SDS011;68809;41.712;44.768;2023-05-16T08:58:59;8.20;;;5.30;;
79338;SDS011;68809;41.712;44.768;2023-05-16T09:01:27;7.50;;;5.00;;
79338;SDS011;68809;41.712;44.768;2023-05-16T09:03:54;9.00;;;4.95;;
79338;SDS011;68809;41.712;44.768;2023-05-16T09:06:20;7.77;;;5.03;;
79338;SDS011;68809;41.712;44.768;2023-05-16T09:08:46;10.15;;;5.57;;
79338;SDS011;68809;41.712;44.768;2023-05-16T09:11:13;9.88;;;5.65;;
79338;SDS011;68809;41.712;44.768;2023-05-16T09:13:40;9.70;;;5.07;;
79338;SDS011;68809;41.712;44.768;2023-05-16T09:16:13;9.07;;;5.05;;
79338;SDS011;68809;41.712;44.768;2023-05-16T09:18:42;11.03;;;5.67;;
79338;SDS011;68809;41.712;44.768;2023-05-16T09:21:11;8.32;;;5.57;;
79338;SDS011;68809;41.712;44.768;2023-05-16T09:23:38;9.98;;;5.72;;
79338;SDS011;68809;41.712;44.768;2023-05-16T09:26:04;10.25;;;5.30;;
79338;SDS011;68809;41.712;44.768;2023-05-16T09:28:33;11.98;;;6.28;;
79338;SDS011;68809;41.712;44.768;2023-05-16T09:30:59;9.03;;;5.33;;
79338;SDS011;68809;41.712;44.768;2023-05-16T09:33:27;8.63;;;4.93;;
79338;SDS011;68809;41.712;44.768;2023-05-16T09:35:57;8.02;;;4.78;;
79338;SDS011;68809;41.712;44.768;2023-05-16T09:38:25;7.60;;;4.55;;
79338;SDS011;68809;41.712;44.768;2023-05-16T09:40:55;7.28;;;4.38;;
79338;SDS011;68809;41.712;44.768;2023-05-16T09:43:24;6.93;;;4.47;;
79338;SDS011;68809;41.712;44.768;2023-05-16T09:45:51;8.20;;;4.32;;
79338;SDS011;68809;41.712;44.768;2023-05-16T09:48:19;6.60;;;4.18;;
79338;SDS011;68809;41.712;44.768;2023-05-16T09:50:50;6.15;;;3.90;;
79338;SDS011;68809;41.712;44.768;2023-05-16T09:53:23;5.88;;;3.70;;
79338;SDS011;68809;41.712;44.768;2023-05-16T09:56:04;5.83;;;3.70;;
79338;SDS011;68809;41.712;44.768;2023-05-16T09:58:33;7.70;;;3.92;;
79338;SDS011;68809;41.712;44.768;2023-05-16T10:01:00;6.35;;;3.28;;
79338;SDS011;68809;41.712;44.768;2023-05-16T10:03:27;7.28;;;3.33;;
79338;SDS011;68809;41.712;44.768;2023-05-16T10:05:54;6.88;;;3.30;;
79338;SDS011;68809;41.712;44.768;2023-05-16T10:08:21;8.77;;;3.87;;
79338;SDS011;68809;41.712;44.768;2023-05-16T10:10:53;6.00;;;3.33;;
79338;SDS011;68809;41.712;44.768;2023-05-16T10:13:20;7.03;;;3.38;;
79338;SDS011;68809;41.712;44.768;2023-05-16T10:15:50;6.32;;;3.50;;
79338;SDS011;68809;41.712;44.768;2023-05-16T10:18:20;6.57;;;3.17;;
79338;SDS011;68809;41.712;44.768;2023-05-16T10:20:48;6.80;;;3.70;;
79338;SDS011;68809;41.712;44.768;2023-05-16T10:23:17;5.97;;;3.40;;
79338;SDS011;68809;41.712;44.768;2023-05-16T10:25:45;6.15;;;3.22;;
79338;SDS011;68809;41.712;44.768;2023-05-16T10:28:13;6.60;;;3.50;;
79338;SDS011;68809;41.712;44.768;2023-05-16T10:30:41;7.82;;;3.30;;
79338;SDS011;68809;41.712;44.768;2023-05-16T10:33:15;5.30;;;3.10;;
79338;SDS011;68809;41.712;44.768;2023-05-16T10:35:43;5.55;;;3.22;;
79338;SDS011;68809;41.712;44.768;2023-05-16T10:38:10;7.40;;;3.00;;
79338;SDS011;68809;41.712;44.768;2023-05-16T10:40:40;9.30;;;3.65;;
79338;SDS011;68809;41.712;44.768;2023-05-16T10:43:07;6.18;;;3.38;;
79338;SDS011;68809;41.712;44.768;2023-05-16T10:45:34;6.50;;;3.30;;
79338;SDS011;68809;41.712;44.768;2023-05-16T10:48:05;6.00;;;3.30;;
79338;SDS011;68809;41.712;44.768;2023-05-16T10:50:41;5.22;;;3.13;;
79338;SDS011;68809;41.712;44.768;2023-05-16T10:56:04;9.10;;;3.20;;
79338;SDS011;68809;41.712;44.768;2023-05-16T11:01:15;7.65;;;2.78;;
79338;SDS011;68809;41.712;44.768;2023-05-16T11:06:29;7.35;;;3.50;;
79338;SDS011;68809;41.712;44.768;2023-05-16T11:19:38;7.65;;;3.83;;
79338;SDS011;68809;41.712;44.768;2023-05-16T11:22:31;8.93;;;5.05;;
79338;SDS011;68809;41.712;44.768;2023-05-16T11:25:02;7.13;;;3.93;;
79338;SDS011;68809;41.712;44.768;2023-05-16T11:27:49;9.30;;;4.28;;
79338;SDS011;68809;41.712;44.768;2023-05-16T11:30:16;8.45;;;4.38;;
79338;SDS011;68809;41.712;44.768;2023-05-16T11:32:44;7.13;;;3.85;;
79338;SDS011;68809;41.712;44.768;2023-05-16T11:35:12;9.35;;;4.53;;
79338;SDS011;68809;41.712;44.768;2023-05-16T11:37:43;9.60;;;4.40;;
79338;SDS011;68809;41.712;44.768;2023-05-16T11:40:10;8.63;;;4.22;;
79338;SDS011;68809;41.712;44.768;2023-05-16T11:42:38;8.45;;;4.00;;
79338;SDS011;68809;41.712;44.768;2023-05-16T11:45:09;9.07;;;4.10;;
79338;SDS011;68809;41.712;44.768;2023-05-16T11:47:40;8.02;;;3.80;;
79338;SDS011;68809;41.712;44.768;2023-05-16T11:50:13;8.03;;;3.70;;
79338;SDS011;68809;41.712;44.768;2023-05-16T11:52:47;8.30;;;3.70;;
79338;SDS011;68809;41.712;44.768;2023-05-16T11:55:22;7.38;;;3.70;;
79338;SDS011;68809;41.712;44.768;2023-05-16T11:57:53;7.93;;;3.58;;
79338;SDS011;68809;41.712;44.768;2023-05-16T12:00:20;8.65;;;3.85;;
79338;SDS011;68809;41.712;44.768;2023-05-16T12:02:49;9.00;;;3.33;;
79338;SDS011;68809;41.712;44.768;2023-05-16T12:05:16;6.15;;;3.25;;
79338;SDS011;68809;41.712;44.768;2023-05-16T12:07:43;6.93;;;3.30;;
79338;SDS011;68809;41.712;44.768;2023-05-16T12:10:11;7.85;;;3.17;;
79338;SDS011;68809;41.712;44.768;2023-05-16T12:12:41;7.70;;;3.30;;
79338;SDS011;68809;41.712;44.768;2023-05-16T12:15:10;6.80;;;3.13;;
79338;SDS011;68809;41.712;44.768;2023-05-16T12:17:37;5.65;;;2.95;;
79338;SDS011;68809;41.712;44.768;2023-05-16T12:20:04;7.30;;;3.10;;
79338;SDS011;68809;41.712;44.768;2023-05-16T12:22:32;5.63;;;2.90;;
79338;SDS011;68809;41.712;44.768;2023-05-16T12:24:59;7.60;;;3.10;;
79338;SDS011;68809;41.712;44.768;2023-05-16T12:27:43;5.37;;;2.90;;
79338;SDS011;68809;41.712;44.768;2023-05-16T12:30:09;5.97;;;2.80;;
79338;SDS011;68809;41.712;44.768;2023-05-16T12:32:36;6.97;;;2.67;;
79338;SDS011;68809;41.712;44.768;2023-05-16T12:35:03;6.03;;;2.97;;
79338;SDS011;68809;41.712;44.768;2023-05-16T12:37:31;7.30;;;3.08;;
79338;SDS011;68809;41.712;44.768;2023-05-16T12:40:00;5.80;;;2.60;;
79338;SDS011;68809;41.712;44.768;2023-05-16T12:42:27;5.82;;;2.88;;
79338;SDS011;68809;41.712;44.768;2023-05-16T12:44:55;7.57;;;2.97;;
79338;SDS011;68809;41.712;44.768;2023-05-16T12:47:21;6.90;;;2.90;;
79338;SDS011;68809;41.712;44.768;2023-05-16T12:49:47;5.35;;;2.70;;
79338;SDS011;68809;41.712;44.768;2023-05-16T12:52:17;5.77;;;2.70;;
79338;SDS011;68809;41.712;44.768;2023-05-16T12:54:45;7.13;;;3.00;;
79338;SDS011;68809;41.712;44.768;2023-05-16T12:57:13;6.88;;;3.10;;
79338;SDS011;68809;41.712;44.768;2023-05-16T12:59:39;5.45;;;2.70;;
79338;SDS011;68809;41.712;44.768;2023-05-16T13:02:06;5.57;;;2.53;;
79338;SDS011;68809;41.712;44.768;2023-05-16T13:04:32;6.70;;;3.30;;
79338;SDS011;68809;41.712;44.768;2023-05-16T13:06:58;5.78;;;2.90;;
79338;SDS011;68809;41.712;44.768;2023-05-16T13:09:25;6.88;;;3.10;;
79338;SDS011;68809;41.712;44.768;2023-05-16T13:11:51;6.97;;;2.70;;
79338;SDS011;68809;41.712;44.768;2023-05-16T13:14:18;7.72;;;3.25;;
79338;SDS011;68809;41.712;44.768;2023-05-16T13:16:44;6.07;;;2.80;;
79338;SDS011;68809;41.712;44.768;2023-05-16T13:19:10;5.97;;;2.70;;
79338;SDS011;68809;41.712;44.768;2023-05-16T13:21:36;7.07;;;2.70;;
79338;SDS011;68809;41.712;44.768;2023-05-16T13:24:03;5.35;;;2.78;;
79338;SDS011;68809;41.712;44.768;2023-05-16T13:26:29;7.43;;;3.00;;
79338;SDS011;68809;41.712;44.768;2023-05-16T13:28:55;6.07;;;2.73;;
79338;SDS011;68809;41.712;44.768;2023-05-16T13:31:22;5.72;;;2.75;;
79338;SDS011;68809;41.712;44.768;2023-05-16T13:33:48;5.75;;;2.78;;
79338;SDS011;68809;41.712;44.768;2023-05-16T13:36:14;6.57;;;2.90;;
79338;SDS011;68809;41.712;44.768;2023-05-16T13:38:40;6.43;;;2.53;;
79338;SDS011;68809;41.712;44.768;2023-05-16T13:41:07;6.30;;;2.80;;
79338;SDS011;68809;41.712;44.768;2023-05-16T13:43:33;5.28;;;2.58;;
79338;SDS011;68809;41.712;44.768;2023-05-16T13:45:59;5.00;;;2.70;;
79338;SDS011;68809;41.712;44.768;2023-05-16T13:48:25;6.97;;;2.92;;
79338;SDS011;68809;41.712;44.768;2023-05-16T13:50:52;6.00;;;2.33;;
79338;SDS011;68809;41.712;44.768;2023-05-16T13:53:18;5.43;;;2.43;;
79338;SDS011;68809;41.712;44.768;2023-05-16T13:55:45;7.30;;;2.60;;
79338;SDS011;68809;41.712;44.768;2023-05-16T13:58:11;6.80;;;2.60;;
79338;SDS011;68809;41.712;44.768;2023-05-16T14:00:37;7.03;;;2.60;;
79338;SDS011;68809;41.712;44.768;2023-05-16T14:03:03;4.90;;;2.50;;
79338;SDS011;68809;41.712;44.768;2023-05-16T14:05:30;4.93;;;2.40;;
79338;SDS011;68809;41.712;44.768;2023-05-16T14:07:56;4.82;;;2.67;;
79338;SDS011;68809;41.712;44.768;2023-05-16T14:10:22;5.78;;;2.95;;
79338;SDS011;68809;41.712;44.768;2023-05-16T14:12:49;4.72;;;2.85;;
79338;SDS011;68809;41.712;44.768;2023-05-16T14:15:19;4.60;;;2.28;;
79338;SDS011;68809;41.712;44.768;2023-05-16T14:17:45;4.67;;;2.40;;
79338;SDS011;68809;41.712;44.768;2023-05-16T14:20:12;5.40;;;2.25;;
79338;SDS011;68809;41.712;44.768;2023-05-16T14:22:40;4.10;;;2.30;;
79338;SDS011;68809;41.712;44.768;2023-05-16T14:25:06;6.10;;;2.40;;
79338;SDS011;68809;41.712;44.768;2023-05-16T14:27:32;5.15;;;2.40;;
79338;SDS011;68809;41.712;44.768;2023-05-16T14:29:59;4.87;;;2.23;;
79338;SDS011;68809;41.712;44.768;2023-05-16T14:32:25;5.38;;;2.60;;
79338;SDS011;68809;41.712;44.768;2023-05-16T14:34:51;5.35;;;2.90;;
79338;SDS011;68809;41.712;44.768;2023-05-16T14:37:18;4.93;;;2.72;;
79338;SDS011;68809;41.712;44.768;2023-05-16T14:39:45;4.93;;;2.53;;
79338;SDS011;68809;41.712;44.768;2023-05-16T14:42:12;5.27;;;2.50;;
79338;SDS011;68809;41.712;44.768;2023-05-16T14:44:39;6.28;;;2.55;;
79338;SDS011;68809;41.712;44.768;2023-05-16T14:47:05;5.50;;;2.63;;
79338;SDS011;68809;41.712;44.768;2023-05-16T14:49:31;6.35;;;2.28;;
79338;SDS011;68809;41.712;44.768;2023-05-16T14:51:57;6.22;;;3.30;;
79338;SDS011;68809;41.712;44.768;2023-05-16T14:54:24;6.07;;;2.70;;
79338;SDS011;68809;41.712;44.768;2023-05-16T14:56:50;4.82;;;2.53;;
79338;SDS011;68809;41.712;44.768;2023-05-16T14:59:16;6.15;;;2.58;;
79338;SDS011;68809;41.712;44.768;2023-05-16T15:01:43;5.63;;;2.78;;
79338;SDS011;68809;41.712;44.768;2023-05-16T15:04:09;5.88;;;2.60;;
79338;SDS011;68809;41.712;44.768;2023-05-16T15:06:35;6.97;;;2.40;;
79338;SDS011;68809;41.712;44.768;2023-05-16T15:09:01;5.57;;;2.60;;